sensor_id;sensor_type;location;lat;lon;timestamp;pressure;altitude;pressure_sealevel;temperature;humidity
56402;BME280;42299;35.160;26.100;2023-08-12T00:09:59;100916.25;;;25.49;100.00
56402;BME280;42299;35.160;26.100;2023-08-12T00:20:22;100913.72;;;25.46;100.00
56402;BME280;42299;35.160;26.100;2023-08-12T00:30:47;100914.59;;;25.46;100.00
56402;BME280;42299;35.160;26.100;2023-08-12T00:41:10;100904.81;;;25.42;100.00
56402;BME280;42299;35.160;26.100;2023-08-12T00:51:35;100897.81;;;25.38;100.00
56402;BME280;42299;35.160;26.100;2023-08-12T01:01:58;100898.81;;;25.35;100.00
56402;BME280;42299;35.160;26.100;2023-08-12T01:12:26;100897.94;;;25.35;100.00
56402;BME280;42299;35.160;26.100;2023-08-12T01:22:56;100885.25;;;25.37;100.00
56402;BME280;42299;35.160;26.100;2023-08-12T01:33:24;100882.31;;;25.41;100.00
56402;BME280;42299;35.160;26.100;2023-08-12T01:43:48;100869.06;;;25.35;100.00
56402;BME280;42299;35.160;26.100;2023-08-12T01:54:13;100871.16;;;25.29;100.00
56402;BME280;42299;35.160;26.100;2023-08-12T02:04:36;100864.88;;;25.28;100.00
56402;BME280;42299;35.160;26.100;2023-08-12T02:15:00;100872.31;;;25.23;100.00
56402;BME280;42299;35.160;26.100;2023-08-12T02:25:23;100875.16;;;25.20;100.00
56402;BME280;42299;35.160;26.100;2023-08-12T02:35:48;100873.53;;;25.16;100.00
56402;BME280;42299;35.160;26.100;2023-08-12T02:46:10;100870.81;;;25.16;100.00
56402;BME280;42299;35.160;26.100;2023-08-12T02:56:35;100862.72;;;25.16;100.00
56402;BME280;42299;35.160;26.100;2023-08-12T03:06:57;100863.91;;;25.09;100.00
56402;BME280;42299;35.160;26.100;2023-08-12T03:17:21;100861.41;;;25.05;100.00
56402;BME280;42299;35.160;26.100;2023-08-12T03:27:46;100864.19;;;25.03;100.00
56402;BME280;42299;35.160;26.100;2023-08-12T03:38:11;100850.66;;;25.03;100.00
56402;BME280;42299;35.160;26.100;2023-08-12T03:48:34;100857.38;;;25.15;100.00
56402;BME280;42299;35.160;26.100;2023-08-12T03:58:58;100856.72;;;25.30;100.00
56402;BME280;42299;35.160;26.100;2023-08-12T04:09:20;100853.78;;;25.34;100.00
56402;BME280;42299;35.160;26.100;2023-08-12T04:19:25;100858.25;;;25.35;100.00
56402;BME280;42299;35.160;26.100;2023-08-12T04:29:47;100858.94;;;25.40;100.00
56402;BME280;42299;35.160;26.100;2023-08-12T04:40:13;100861.84;;;25.56;100.00
56402;BME280;42299;35.160;26.100;2023-08-12T04:50:37;100858.69;;;25.67;100.00
56402;BME280;42299;35.160;26.100;2023-08-12T05:01:02;100857.88;;;26.24;100.00
56402;BME280;42299;35.160;26.100;2023-08-12T05:11:25;100864.91;;;26.83;100.00
56402;BME280;42299;35.160;26.100;2023-08-12T05:21:49;100850.88;;;27.95;100.00
56402;BME280;42299;35.160;26.100;2023-08-12T05:32:12;100852.25;;;27.87;100.00
56402;BME280;42299;35.160;26.100;2023-08-12T05:42:36;100851.41;;;27.69;100.00
56402;BME280;42299;35.160;26.100;2023-08-12T05:52:58;100858.69;;;28.01;100.00
56402;BME280;42299;35.160;26.100;2023-08-12T06:03:22;100851.44;;;28.18;100.00
56402;BME280;42299;35.160;26.100;2023-08-12T06:13:45;100849.66;;;29.41;100.00
56402;BME280;42299;35.160;26.100;2023-08-12T06:24:10;100850.16;;;28.72;100.00
56402;BME280;42299;35.160;26.100;2023-08-12T06:34:32;100855.03;;;28.18;100.00
56402;BME280;42299;35.160;26.100;2023-08-12T06:44:58;100863.84;;;29.16;100.00
56402;BME280;42299;35.160;26.100;2023-08-12T06:55:22;100861.72;;;28.75;100.00
56402;BME280;42299;35.160;26.100;2023-08-12T07:05:47;100856.50;;;30.06;99.55
56402;BME280;42299;35.160;26.100;2023-08-12T07:16:10;100854.50;;;30.92;92.32
56402;BME280;42299;35.160;26.100;2023-08-12T07:26:34;100863.94;;;30.86;84.29
56402;BME280;42299;35.160;26.100;2023-08-12T07:36:56;100852.34;;;30.56;85.97
56402;BME280;42299;35.160;26.100;2023-08-12T07:47:20;100862.94;;;30.46;86.49
56402;BME280;42299;35.160;26.100;2023-08-12T07:57:46;100855.59;;;30.75;81.18
56402;BME280;42299;35.160;26.100;2023-08-12T08:08:09;100865.22;;;30.80;81.02
56402;BME280;42299;35.160;26.100;2023-08-12T08:18:33;100851.09;;;31.67;75.02
56402;BME280;42299;35.160;26.100;2023-08-12T08:28:57;100850.84;;;32.08;67.72
56402;BME280;42299;35.160;26.100;2023-08-12T08:39:20;100852.13;;;32.40;66.19
56402;BME280;42299;35.160;26.100;2023-08-12T08:49:44;100870.13;;;32.68;63.75
56402;BME280;42299;35.160;26.100;2023-08-12T09:00:07;100872.94;;;33.27;57.02
56402;BME280;42299;35.160;26.100;2023-08-12T09:10:35;100863.53;;;33.42;53.79
56402;BME280;42299;35.160;26.100;2023-08-12T09:20:58;100866.94;;;33.68;51.32
56402;BME280;42299;35.160;26.100;2023-08-12T09:31:07;100857.47;;;34.29;48.23
56402;BME280;42299;35.160;26.100;2023-08-12T09:41:11;100865.25;;;34.67;46.77
56402;BME280;42299;35.160;26.100;2023-08-12T09:51:38;100860.50;;;34.92;45.03
56402;BME280;42299;35.160;26.100;2023-08-12T10:02:03;100862.38;;;34.80;43.10
56402;BME280;42299;35.160;26.100;2023-08-12T10:12:29;100859.13;;;34.86;42.71
56402;BME280;42299;35.160;26.100;2023-08-12T10:22:53;100869.72;;;34.79;41.79
56402;BME280;42299;35.160;26.100;2023-08-12T10:33:18;100866.78;;;34.71;40.90
56402;BME280;42299;35.160;26.100;2023-08-12T10:43:48;100864.53;;;34.54;40.24
56402;BME280;42299;35.160;26.100;2023-08-12T10:54:21;100865.19;;;34.35;40.82
56402;BME280;42299;35.160;26.100;2023-08-12T11:04:44;100862.69;;;34.21;40.29
56402;BME280;42299;35.160;26.100;2023-08-12T11:15:10;100855.06;;;34.14;40.63
56402;BME280;42299;35.160;26.100;2023-08-12T11:25:34;100836.53;;;34.06;40.46
56402;BME280;42299;35.160;26.100;2023-08-12T11:35:59;100832.53;;;33.99;40.53
56402;BME280;42299;35.160;26.100;2023-08-12T11:46:22;100854.06;;;34.15;41.51
56402;BME280;42299;35.160;26.100;2023-08-12T11:56:47;100836.63;;;34.27;42.17
56402;BME280;42299;35.160;26.100;2023-08-12T12:07:19;100853.97;;;34.27;41.86
56402;BME280;42299;35.160;26.100;2023-08-12T12:17:45;100851.34;;;34.37;42.01
56402;BME280;42299;35.160;26.100;2023-08-12T12:27:48;100839.38;;;34.27;41.18
56402;BME280;42299;35.160;26.100;2023-08-12T12:37:58;100831.03;;;34.06;41.61
56402;BME280;42299;35.160;26.100;2023-08-12T12:48:21;100812.34;;;33.78;41.96
56402;BME280;42299;35.160;26.100;2023-08-12T12:58:45;100815.84;;;33.34;41.80
56402;BME280;42299;35.160;26.100;2023-08-12T13:09:08;100807.25;;;33.38;41.48
56402;BME280;42299;35.160;26.100;2023-08-12T13:19:35;100800.59;;;33.18;42.92
56402;BME280;42299;35.160;26.100;2023-08-12T13:29:53;100798.66;;;33.20;42.36
56402;BME280;42299;35.160;26.100;2023-08-12T13:40:17;100804.50;;;32.68;43.48
56402;BME280;42299;35.160;26.100;2023-08-12T13:50:40;100801.69;;;32.44;43.75
56402;BME280;42299;35.160;26.100;2023-08-12T14:01:05;100806.59;;;32.28;44.29
56402;BME280;42299;35.160;26.100;2023-08-12T14:11:27;100804.88;;;32.15;44.82
56402;BME280;42299;35.160;26.100;2023-08-12T14:21:51;100808.69;;;31.87;45.78
56402;BME280;42299;35.160;26.100;2023-08-12T14:31:54;100795.09;;;32.11;46.19
56402;BME280;42299;35.160;26.100;2023-08-12T14:42:18;100775.06;;;32.35;45.37
56402;BME280;42299;35.160;26.100;2023-08-12T14:52:40;100770.50;;;32.23;45.19
56402;BME280;42299;35.160;26.100;2023-08-12T15:03:04;100769.06;;;31.69;44.53
56402;BME280;42299;35.160;26.100;2023-08-12T15:13:27;100769.28;;;31.01;44.42
56402;BME280;42299;35.160;26.100;2023-08-12T15:23:52;100757.47;;;30.34;49.73
56402;BME280;42299;35.160;26.100;2023-08-12T15:34:14;100772.72;;;29.81;54.57
56402;BME280;42299;35.160;26.100;2023-08-12T15:44:29;100759.41;;;29.62;56.73
56402;BME280;42299;35.160;26.100;2023-08-12T15:54:52;100770.00;;;29.39;59.42
56402;BME280;42299;35.160;26.100;2023-08-12T16:05:16;100765.19;;;29.14;62.96
56402;BME280;42299;35.160;26.100;2023-08-12T16:15:38;100776.84;;;28.86;63.90
56402;BME280;42299;35.160;26.100;2023-08-12T16:26:02;100785.81;;;28.72;67.89
56402;BME280;42299;35.160;26.100;2023-08-12T16:36:25;100787.13;;;28.49;72.12
56402;BME280;42299;35.160;26.100;2023-08-12T16:46:49;100792.84;;;28.29;77.44
56402;BME280;42299;35.160;26.100;2023-08-12T16:57:14;100792.31;;;28.07;81.24
56402;BME280;42299;35.160;26.100;2023-08-12T17:07:38;100799.53;;;27.91;84.56
56402;BME280;42299;35.160;26.100;2023-08-12T17:17:56;100801.50;;;27.71;85.64
56402;BME280;42299;35.160;26.100;2023-08-12T17:28:21;100810.19;;;27.62;84.68
56402;BME280;42299;35.160;26.100;2023-08-12T17:38:43;100816.22;;;27.50;85.33
56402;BME280;42299;35.160;26.100;2023-08-12T17:49:09;100816.97;;;27.36;87.71
56402;BME280;42299;35.160;26.100;2023-08-12T17:59:31;100820.41;;;27.23;89.67
56402;BME280;42299;35.160;26.100;2023-08-12T18:09:55;100822.78;;;27.12;94.08
56402;BME280;42299;35.160;26.100;2023-08-12T18:20:20;100833.53;;;26.96;97.24
56402;BME280;42299;35.160;26.100;2023-08-12T18:30:24;100835.72;;;26.88;99.39
56402;BME280;42299;35.160;26.100;2023-08-12T18:40:28;100837.72;;;26.84;100.00
56402;BME280;42299;35.160;26.100;2023-08-12T18:50:52;100846.13;;;26.78;100.00
56402;BME280;42299;35.160;26.100;2023-08-12T19:01:14;100844.03;;;26.66;100.00
56402;BME280;42299;35.160;26.100;2023-08-12T19:11:38;100839.16;;;26.55;100.00
56402;BME280;42299;35.160;26.100;2023-08-12T19:21:41;100850.44;;;26.46;100.00
56402;BME280;42299;35.160;26.100;2023-08-12T19:32:06;100849.06;;;26.38;100.00
56402;BME280;42299;35.160;26.100;2023-08-12T19:42:08;100847.91;;;26.25;100.00
56402;BME280;42299;35.160;26.100;2023-08-12T19:52:32;100846.41;;;26.17;100.00
56402;BME280;42299;35.160;26.100;2023-08-12T20:02:35;100847.50;;;26.13;100.00
56402;BME280;42299;35.160;26.100;2023-08-12T20:13:01;100842.44;;;26.06;100.00
56402;BME280;42299;35.160;26.100;2023-08-12T20:23:24;100836.59;;;25.96;100.00
56402;BME280;42299;35.160;26.100;2023-08-12T20:33:47;100834.25;;;25.89;100.00
56402;BME280;42299;35.160;26.100;2023-08-12T20:44:10;100831.75;;;25.84;100.00
56402;BME280;42299;35.160;26.100;2023-08-12T20:54:35;100841.38;;;25.71;100.00
56402;BME280;42299;35.160;26.100;2023-08-12T21:04:57;100839.75;;;25.67;100.00
56402;BME280;42299;35.160;26.100;2023-08-12T21:15:07;100838.31;;;25.60;100.00
56402;BME280;42299;35.160;26.100;2023-08-12T21:25:30;100840.63;;;25.47;100.00
56402;BME280;42299;35.160;26.100;2023-08-12T21:35:54;100836.69;;;25.34;100.00
56402;BME280;42299;35.160;26.100;2023-08-12T21:46:17;100829.91;;;25.25;100.00
56402;BME280;42299;35.160;26.100;2023-08-12T21:56:42;100823.22;;;25.14;100.00
56402;BME280;42299;35.160;26.100;2023-08-12T22:07:04;100811.78;;;25.07;100.00
56402;BME280;42299;35.160;26.100;2023-08-12T22:17:29;100807.72;;;24.97;100.00
56402;BME280;42299;35.160;26.100;2023-08-12T22:27:52;100788.06;;;24.93;100.00
56402;BME280;42299;35.160;26.100;2023-08-12T22:38:17;100777.63;;;24.84;100.00
56402;BME280;42299;35.160;26.100;2023-08-12T22:48:40;100765.19;;;24.80;100.00
56402;BME280;42299;35.160;26.100;2023-08-12T22:59:05;100753.91;;;24.71;100.00
56402;BME280;42299;35.160;26.100;2023-08-12T23:09:27;100748.69;;;24.66;100.00
56402;BME280;42299;35.160;26.100;2023-08-12T23:19:52;100743.63;;;24.58;100.00
56402;BME280;42299;35.160;26.100;2023-08-12T23:30:15;100718.66;;;24.53;100.00
56402;BME280;42299;35.160;26.100;2023-08-12T23:40:39;100712.28;;;24.34;100.00
56402;BME280;42299;35.160;26.100;2023-08-12T23:50:41;100710.38;;;24.36;100.00
